Time;durP1;ratioP1;P1;durP2;ratioP2;P2;SDS_P1;SDS_P2;PMS_P1;PMS_P2;Temp;Humidity;BMP_temperature;BMP_pressure;BME280_temperature;BME280_humidity;BME280_pressure;Samples;Min_cycle;Max_cycle;Signal;HPM_P1;HPM_P2
2022/03/17 00:00:07;;;;;;;402.87;132.83;;;;;;;5.80;89.64;100375.03;340895;28;1326;-71
2022/03/17 00:00:18;;;;;;;405.17;133.65;;;;;;;5.82;89.30;100373.28;340538;28;1008;-71
2022/03/17 00:00:28;;;;;;;405.57;132.70;;;;;;;5.83;89.40;100375.00;340577;28;1227;-71
2022/03/17 00:00:38;;;;;;;403.30;131.50;;;;;;;5.86;89.25;100381.91;342369;28;1071;-71
2022/03/17 00:00:49;;;;;;;400.70;131.30;;;;;;;5.88;89.13;100372.38;341204;28;1744;-71
2022/03/17 00:00:59;;;;;;;399.80;128.98;;;;;;;5.89;89.24;100368.94;338777;28;2153;-71
2022/03/17 00:01:10;;;;;;;401.53;127.83;;;;;;;5.90;89.19;100375.84;341022;28;2458;-71
2022/03/17 00:01:20;;;;;;;402.88;128.23;;;;;;;5.87;89.43;100375.84;341474;28;967;-71
2022/03/17 00:01:32;;;;;;;404.00;130.90;;;;;;;5.86;88.79;100379.31;339743;29;1389;-71
2022/03/17 00:01:42;;;;;;;404.27;134.07;;;;;;;5.83;88.82;100375.00;338690;29;858;-71
2022/03/17 00:01:53;;;;;;;402.73;133.02;;;;;;;5.80;89.35;100374.16;339847;28;1272;-71
2022/03/17 00:02:03;;;;;;;403.33;133.03;;;;;;;5.80;88.99;100368.97;338542;29;1270;-71
2022/03/17 00:02:14;;;;;;;402.65;130.52;;;;;;;5.79;88.79;100369.84;338855;29;1319;-71
2022/03/17 00:02:24;;;;;;;402.63;130.97;;;;;;;5.80;88.81;100374.16;341111;28;1335;-71
2022/03/17 00:02:37;;;;;;;400.83;128.43;;;;;;;5.78;89.36;100371.59;341338;28;958;-71
2022/03/17 00:02:48;;;;;;;400.38;130.85;;;;;;;5.76;89.52;100372.47;342531;28;1079;-71
2022/03/17 00:02:58;;;;;;;400.75;131.60;;;;;;;5.76;89.47;100382.88;343967;28;829;-71
2022/03/17 00:03:08;;;;;;;400.60;134.23;;;;;;;5.78;89.35;100371.59;344178;28;1302;-71
2022/03/17 00:03:19;;;;;;;401.13;134.23;;;;;;;5.78;89.26;100375.91;342828;28;1200;-71
2022/03/17 00:03:29;;;;;;;402.23;135.47;;;;;;;5.81;89.60;100376.75;343932;28;1067;-71
2022/03/17 00:03:40;;;;;;;403.17;135.40;;;;;;;5.83;89.43;100380.19;343923;28;1249;-71
2022/03/17 00:03:50;;;;;;;404.20;133.40;;;;;;;5.82;89.11;100377.63;339609;28;2195;-71
2022/03/17 00:04:00;;;;;;;404.10;131.50;;;;;;;5.80;89.31;100375.03;339691;28;2350;-72
2022/03/17 00:04:11;;;;;;;402.63;129.63;;;;;;;5.80;89.54;100371.56;339905;28;1783;-71
2022/03/17 00:04:22;;;;;;;401.57;130.47;;;;;;;5.78;89.17;100375.91;340111;29;1517;-71
2022/03/17 00:04:32;;;;;;;400.00;129.80;;;;;;;5.76;89.15;100368.16;339874;29;1076;-71
2022/03/17 00:04:42;;;;;;;402.33;129.95;;;;;;;5.79;89.18;100367.25;341318;28;865;-72
2022/03/17 00:04:53;;;;;;;403.10;131.40;;;;;;;5.79;88.99;100372.44;340905;28;1554;-72
2022/03/17 00:05:04;;;;;;;402.73;132.88;;;;;;;5.78;89.41;100370.72;339554;29;957;-72
2022/03/17 00:05:15;;;;;;;400.90;132.95;;;;;;;5.68;88.95;100368.22;336686;29;1063;-71
2022/03/17 00:05:25;;;;;;;397.10;129.40;;;;;;;5.66;89.11;100374.28;336648;29;941;-71
2022/03/17 00:05:37;;;;;;;393.50;128.13;;;;;;;5.66;89.37;100372.56;337950;29;1174;-71
2022/03/17 00:05:47;;;;;;;395.20;125.28;;;;;;;5.66;89.29;100372.56;339921;29;991;-71
2022/03/17 00:05:58;;;;;;;398.95;126.65;;;;;;;5.66;89.14;100375.16;341359;28;1213;-71
2022/03/17 00:06:11;;;;;;;400.33;127.60;;;;;;;5.69;89.28;100366.47;342706;28;1299;-71
2022/03/17 00:06:22;;;;;;;401.98;128.63;;;;;;;5.68;89.26;100370.81;341290;28;1044;-71
2022/03/17 00:06:32;;;;;;;399.88;128.00;;;;;;;5.68;89.43;100370.81;341272;28;920;-71
2022/03/17 00:06:43;;;;;;;400.00;128.00;;;;;;;5.71;89.48;100369.06;340005;29;1299;-71
2022/03/17 00:06:53;;;;;;;398.13;126.87;;;;;;;5.72;89.12;100366.44;341226;28;1444;-71
2022/03/17 00:07:04;;;;;;;398.52;126.43;;;;;;;5.72;89.82;100365.59;340838;28;1481;-71
2022/03/17 00:07:14;;;;;;;399.60;127.80;;;;;;;5.67;89.45;100365.63;339858;29;1549;-71
2022/03/17 00:07:25;;;;;;;403.80;130.90;;;;;;;5.69;89.47;100367.34;339792;28;1906;-71
2022/03/17 00:07:39;;;;;;;404.77;131.10;;;;;;;5.71;89.76;100369.06;340950;28;1472;-71
2022/03/17 00:07:50;;;;;;;399.88;128.50;;;;;;;5.72;89.51;100363.00;342669;28;893;-71
2022/03/17 00:08:00;;;;;;;397.95;126.53;;;;;;;5.71;89.99;100366.47;342575;28;1453;-71
2022/03/17 00:08:11;;;;;;;400.43;127.77;;;;;;;5.72;89.64;100365.59;341411;28;950;-70
2022/03/17 00:08:22;;;;;;;404.23;129.85;;;;;;;5.73;89.78;100367.31;341421;28;909;-70
2022/03/17 00:08:32;;;;;;;407.98;131.73;;;;;;;5.74;89.92;100363.84;341323;28;1262;-71
2022/03/17 00:08:42;;;;;;;408.83;132.30;;;;;;;5.62;89.79;100363.09;340547;28;1949;-71
2022/03/17 00:08:53;;;;;;;406.40;131.77;;;;;;;5.59;89.86;100363.13;341564;28;2081;-71
2022/03/17 00:09:07;;;;;;;403.57;133.57;;;;;;;5.58;89.84;100366.59;342603;28;1729;-71
2022/03/17 00:09:17;;;;;;;403.27;132.00;;;;;;;5.58;90.09;100369.19;342756;28;1049;-71
2022/03/17 00:09:27;;;;;;;403.48;130.48;;;;;;;5.56;89.96;100368.34;338685;29;906;-71
2022/03/17 00:09:38;;;;;;;401.93;129.03;;;;;;;5.55;90.05;100363.16;342709;28;1283;-71
2022/03/17 00:09:48;;;;;;;403.00;130.23;;;;;;;5.56;90.04;100365.75;344536;28;1461;-71
2022/03/17 00:09:59;;;;;;;402.43;131.47;;;;;;;5.54;90.43;100362.31;343973;28;851;-70
2022/03/17 00:10:16;;;;;;;402.60;131.30;;;;;;;5.56;90.58;100368.34;341143;28;830;-71
2022/03/17 00:10:28;;;;;;;399.33;129.15;;;;;;;5.58;89.89;100361.41;337755;29;886;-71
2022/03/17 00:10:38;;;;;;;399.65;128.65;;;;;;;5.61;90.37;100366.56;341581;28;2280;-71
2022/03/17 00:10:49;;;;;;;402.87;133.23;;;;;;;5.59;90.39;100365.72;342652;28;1707;-71
2022/03/17 00:10:59;;;;;;;404.48;133.65;;;;;;;5.58;90.18;100364.00;342780;28;888;-71
2022/03/17 00:11:10;;;;;;;403.48;131.05;;;;;;;5.57;90.45;100359.69;341373;28;1342;-71
2022/03/17 00:11:20;;;;;;;400.70;127.63;;;;;;;5.56;90.55;100355.34;341356;28;1227;-71
2022/03/17 00:11:31;;;;;;;400.27;128.57;;;;;;;5.57;90.57;100356.22;341106;28;1237;-71
2022/03/17 00:11:41;;;;;;;402.83;131.60;;;;;;;5.59;90.70;100359.66;340910;28;1295;-71
2022/03/17 00:11:52;;;;;;;406.85;133.82;;;;;;;5.61;90.59;100361.38;342564;28;871;-71
2022/03/17 00:12:03;;;;;;;406.23;132.52;;;;;;;5.62;90.62;100360.50;341051;28;1178;-71
2022/03/17 00:12:13;;;;;;;403.73;128.20;;;;;;;5.59;90.42;100368.31;344143;28;1305;-71
2022/03/17 00:12:24;;;;;;;400.87;125.83;;;;;;;5.56;90.61;100370.06;342601;28;1374;-71
2022/03/17 00:12:34;;;;;;;402.08;127.05;;;;;;;5.53;90.88;100359.72;343827;28;986;-72
2022/03/17 00:12:46;;;;;;;403.75;131.15;;;;;;;5.55;90.64;100355.38;341311;28;1698;-71
2022/03/17 00:12:56;;;;;;;403.55;132.18;;;;;;;5.57;90.78;100369.19;340125;29;916;-71
2022/03/17 00:13:07;;;;;;;401.08;130.57;;;;;;;5.59;91.00;100359.66;341323;28;841;-71
2022/03/17 00:13:19;;;;;;;401.63;129.33;;;;;;;5.61;90.81;100365.72;344163;28;797;-71
2022/03/17 00:13:30;;;;;;;404.02;129.80;;;;;;;5.61;91.42;100366.56;343023;28;2712;-71
2022/03/17 00:13:41;;;;;;;401.98;129.73;;;;;;;5.61;90.99;100373.50;342947;28;901;-71
2022/03/17 00:13:52;;;;;;;399.83;129.85;;;;;;;5.59;91.12;100354.47;341155;28;968;-71
2022/03/17 00:14:02;;;;;;;400.47;130.57;;;;;;;5.58;91.14;100371.78;342425;28;1639;-71
2022/03/17 00:14:13;;;;;;;402.02;131.80;;;;;;;5.58;91.13;100369.19;341298;28;853;-71
2022/03/17 00:14:24;;;;;;;402.33;131.05;;;;;;;5.59;91.28;100362.25;342545;28;1310;-71
2022/03/17 00:14:35;;;;;;;403.38;131.45;;;;;;;5.59;91.21;100360.53;342677;28;1156;-72
2022/03/17 00:14:46;;;;;;;405.42;133.55;;;;;;;5.58;90.78;100369.19;341230;28;880;-71
2022/03/17 00:14:56;;;;;;;405.17;135.13;;;;;;;5.59;91.24;100368.31;342792;28;1215;-71
2022/03/17 00:15:07;;;;;;;406.43;134.20;;;;;;;5.60;90.95;100362.25;340200;28;1328;-71
2022/03/17 00:15:17;;;;;;;403.30;133.30;;;;;;;5.63;90.87;100366.56;342143;28;1424;-71
2022/03/17 00:15:29;;;;;;;403.17;134.50;;;;;;;5.66;90.96;100367.38;339352;28;723;-71
2022/03/17 00:15:40;;;;;;;401.02;133.93;;;;;;;5.67;90.98;100358.69;340363;28;1338;-71
2022/03/17 00:15:50;;;;;;;401.88;132.27;;;;;;;5.71;90.81;100366.47;342406;28;1041;-71
2022/03/17 00:16:01;;;;;;;403.42;132.32;;;;;;;5.73;90.94;100367.31;343991;28;802;-71
2022/03/17 00:16:12;;;;;;;401.87;130.97;;;;;;;5.76;90.94;100372.47;341429;28;906;-71
2022/03/17 00:16:22;;;;;;;403.02;132.13;;;;;;;5.75;90.96;100365.56;340156;29;1177;-71
2022/03/17 00:16:33;;;;;;;402.70;131.43;;;;;;;5.75;90.89;100371.63;340817;28;1196;-71
2022/03/17 00:16:43;;;;;;;402.30;133.40;;;;;;;5.75;90.55;100375.94;341267;28;1504;-71
2022/03/17 00:16:54;;;;;;;397.43;128.77;;;;;;;5.68;90.53;100376.00;339911;28;1216;-71
2022/03/17 00:17:04;;;;;;;396.92;128.32;;;;;;;5.66;90.61;100372.56;341103;28;851;-71
2022/03/17 00:17:14;;;;;;;399.97;128.33;;;;;;;5.64;90.84;100369.09;344253;28;880;-71
2022/03/17 00:17:26;;;;;;;400.63;130.02;;;;;;;5.65;91.03;100369.97;342544;28;1196;-71
2022/03/17 00:17:37;;;;;;;400.52;127.45;;;;;;;5.68;90.78;100372.53;342589;28;917;-71
2022/03/17 00:17:48;;;;;;;398.65;126.38;;;;;;;5.71;90.74;100369.06;340909;28;1500;-71
2022/03/17 00:17:58;;;;;;;401.97;127.23;;;;;;;5.75;90.85;100375.94;339922;28;1538;-71
2022/03/17 00:18:08;;;;;;;397.95;124.70;;;;;;;5.74;90.37;100371.63;340181;29;862;-71
2022/03/17 00:18:19;;;;;;;399.30;127.57;;;;;;;5.71;90.49;100374.25;341452;28;2642;-71
2022/03/17 00:18:29;;;;;;;397.73;128.40;;;;;;;5.68;90.75;100376.00;342270;28;1370;-70
2022/03/17 00:18:40;;;;;;;401.65;133.25;;;;;;;5.68;90.64;100377.72;341063;28;1224;-71
2022/03/17 00:18:51;;;;;;;400.80;129.73;;;;;;;5.68;91.01;100378.59;341118;28;1217;-70
2022/03/17 00:19:07;;;;;;;400.27;127.57;;;;;;;5.69;90.95;100372.53;339688;29;1662;-70
2022/03/17 00:19:18;;;;;;;400.02;129.88;;;;;;;5.71;90.95;100367.31;339885;28;1641;-70
2022/03/17 00:19:28;;;;;;;399.75;129.07;;;;;;;5.72;90.79;100373.38;341593;28;1978;-71
2022/03/17 00:19:39;;;;;;;397.55;128.55;;;;;;;5.70;90.98;100373.38;341385;28;936;-70
2022/03/17 00:19:49;;;;;;;397.53;127.07;;;;;;;5.72;90.64;100371.66;342545;28;861;-70
2022/03/17 00:20:00;;;;;;;398.13;125.53;;;;;;;5.72;90.93;100370.78;341195;28;1371;-70
2022/03/17 00:20:11;;;;;;;400.77;125.90;;;;;;;5.74;90.90;100371.63;340746;28;1291;-71
2022/03/17 00:20:23;;;;;;;402.73;126.97;;;;;;;5.76;90.81;100372.47;339446;28;884;-71
2022/03/17 00:20:33;;;;;;;403.10;130.32;;;;;;;5.76;90.59;100372.47;338606;28;1991;-71
2022/03/17 00:20:44;;;;;;;401.17;127.95;;;;;;;5.76;90.44;100368.16;338457;29;1190;-71
2022/03/17 00:20:54;;;;;;;403.43;127.43;;;;;;;5.78;89.99;100375.91;340905;28;2118;-71
2022/03/17 00:21:06;;;;;;;403.30;128.45;;;;;;;5.76;90.40;100372.47;342190;28;1859;-71
2022/03/17 00:21:16;;;;;;;401.15;129.68;;;;;;;5.72;90.34;100373.38;341167;28;1170;-70
2022/03/17 00:21:26;;;;;;;400.50;129.37;;;;;;;5.67;90.75;100370.81;342607;28;1352;-70
2022/03/17 00:21:37;;;;;;;401.45;128.65;;;;;;;5.64;90.81;100363.91;342535;28;1455;-70
2022/03/17 00:21:48;;;;;;;402.20;127.77;;;;;;;5.65;91.13;100376.03;343835;28;847;-70
2022/03/17 00:21:59;;;;;;;400.75;130.18;;;;;;;5.69;90.46;100371.66;341194;28;1391;-70
2022/03/17 00:22:15;;;;;;;402.13;132.07;;;;;;;5.69;90.75;100375.13;342453;28;861;-70
2022/03/17 00:22:26;;;;;;;405.60;131.07;;;;;;;5.72;90.74;100370.78;340121;28;1183;-70
2022/03/17 00:22:37;;;;;;;406.15;130.05;;;;;;;5.72;91.34;100368.19;341078;28;902;-70
2022/03/17 00:22:47;;;;;;;408.40;131.20;;;;;;;5.72;91.03;100360.41;343579;28;1279;-71
2022/03/17 00:22:58;;;;;;;406.20;131.63;;;;;;;5.74;91.08;100369.03;344044;28;941;-70
2022/03/17 00:23:09;;;;;;;405.83;131.15;;;;;;;5.77;90.94;100366.41;339416;28;1723;-70
2022/03/17 00:23:19;;;;;;;402.92;130.88;;;;;;;5.76;91.10;100367.28;341069;28;1488;-70
2022/03/17 00:23:30;;;;;;;402.40;131.57;;;;;;;5.79;91.01;100369.84;339872;29;898;-70
2022/03/17 00:23:41;;;;;;;402.80;132.15;;;;;;;5.83;90.77;100368.94;341916;28;2068;-70
2022/03/17 00:23:51;;;;;;;403.20;133.27;;;;;;;5.85;90.72;100369.81;342548;28;964;-70
2022/03/17 00:24:03;;;;;;;404.77;133.43;;;;;;;5.81;90.71;100373.28;342615;28;857;-70
2022/03/17 00:24:13;;;;;;;401.73;131.00;;;;;;;5.77;90.84;100367.28;339883;29;973;-70
2022/03/17 00:24:23;;;;;;;400.70;130.23;;;;;;;5.75;90.71;100365.56;341470;28;941;-70
2022/03/17 00:24:35;;;;;;;400.38;131.30;;;;;;;5.77;90.72;100374.19;339829;29;1208;-71
2022/03/17 00:24:48;;;;;;;402.27;132.90;;;;;;;5.71;90.18;100369.91;339820;29;844;-70
2022/03/17 00:24:59;;;;;;;404.42;133.05;;;;;;;5.71;90.67;100369.06;339877;29;897;-70
2022/03/17 00:25:10;;;;;;;403.63;133.75;;;;;;;5.71;90.46;100371.66;339416;28;1260;-70
2022/03/17 00:25:21;;;;;;;404.13;133.23;;;;;;;5.68;90.00;100365.63;339247;28;1213;-70
2022/03/17 00:25:32;;;;;;;404.38;134.98;;;;;;;5.71;90.50;100369.91;339168;28;1717;-70
2022/03/17 00:25:42;;;;;;;405.33;134.95;;;;;;;5.71;90.68;100364.72;340976;28;1635;-71
2022/03/17 00:25:53;;;;;;;404.97;133.97;;;;;;;5.72;90.81;100370.78;338461;28;1307;-70
2022/03/17 00:26:03;;;;;;;402.30;131.35;;;;;;;5.72;90.53;100370.78;338541;29;822;-70
2022/03/17 00:26:14;;;;;;;400.23;129.23;;;;;;;5.72;90.42;100366.44;339866;29;1205;-70
2022/03/17 00:26:24;;;;;;;399.90;128.73;;;;;;;5.74;90.76;100369.03;340106;29;1298;-71
2022/03/17 00:26:35;;;;;;;399.60;129.37;;;;;;;5.76;90.47;100370.75;342508;28;913;-70
2022/03/17 00:26:46;;;;;;;400.28;129.40;;;;;;;5.76;90.47;100368.16;342371;28;1271;-70
2022/03/17 00:26:56;;;;;;;399.40;129.10;;;;;;;5.76;90.48;100362.94;341173;28;849;-71
2022/03/17 00:27:08;;;;;;;401.50;129.97;;;;;;;5.77;90.77;100369.00;341329;28;918;-70
2022/03/17 00:27:18;;;;;;;402.65;132.88;;;;;;;5.74;90.45;100369.03;339003;29;913;-71
2022/03/17 00:27:28;;;;;;;403.02;133.32;;;;;;;5.71;90.77;100367.31;338663;28;1429;-70
2022/03/17 00:27:39;;;;;;;404.37;133.43;;;;;;;5.71;90.48;100374.25;342405;28;1319;-70
2022/03/17 00:27:50;;;;;;;402.23;128.45;;;;;;;5.71;90.71;100371.66;342536;28;932;-71
2022/03/17 00:28:00;;;;;;;405.90;128.70;;;;;;;5.73;90.61;100372.50;341244;28;1800;-71
2022/03/17 00:28:11;;;;;;;405.80;128.57;;;;;;;5.74;90.88;100369.03;341030;28;1278;-70
2022/03/17 00:28:22;;;;;;;407.08;131.30;;;;;;;5.76;90.52;100373.34;339889;29;1003;-70
2022/03/17 00:28:32;;;;;;;404.10;131.13;;;;;;;5.77;90.37;100366.41;338553;28;1426;-71
2022/03/17 00:28:42;;;;;;;405.20;133.37;;;;;;;5.79;90.59;100375.03;338502;29;1177;-70
2022/03/17 00:28:53;;;;;;;405.02;133.15;;;;;;;5.79;90.80;100375.03;341140;28;1246;-70
2022/03/17 00:29:07;;;;;;;404.83;133.40;;;;;;;5.79;90.69;100375.03;340160;28;1065;-70
2022/03/17 00:29:19;;;;;;;403.40;130.63;;;;;;;5.79;90.71;100375.03;340046;29;948;-73
2022/03/17 00:29:29;;;;;;;404.50;130.20;;;;;;;5.78;90.87;100371.59;341210;28;858;-70
2022/03/17 00:29:39;;;;;;;405.93;131.13;;;;;;;5.77;90.50;100379.38;340221;28;1603;-70
2022/03/17 00:29:50;;;;;;;405.77;132.30;;;;;;;5.75;90.67;100375.94;342363;28;1947;-71
2022/03/17 00:30:00;;;;;;;404.17;132.70;;;;;;;5.73;90.76;100375.09;342190;28;1324;-70
2022/03/17 00:30:11;;;;;;;404.77;134.57;;;;;;;5.74;90.57;100380.28;341001;28;885;-70
2022/03/17 00:30:21;;;;;;;401.52;133.18;;;;;;;5.75;90.59;100381.13;339345;28;1403;-70
2022/03/17 00:30:32;;;;;;;400.03;130.87;;;;;;;5.75;90.54;100376.81;339277;28;1337;-70
2022/03/17 00:30:42;;;;;;;399.38;129.73;;;;;;;5.75;90.64;100375.94;339511;28;1927;-70
2022/03/17 00:30:52;;;;;;;401.93;131.13;;;;;;;5.77;90.83;100382.00;341475;28;1282;-70
2022/03/17 00:31:03;;;;;;;402.10;133.93;;;;;;;5.78;90.74;100376.78;343705;28;1176;-70
2022/03/17 00:31:16;;;;;;;401.77;132.53;;;;;;;5.81;90.53;100381.94;342461;28;856;-71
2022/03/17 00:31:27;;;;;;;400.60;129.32;;;;;;;5.82;90.78;100383.66;342635;28;953;-70
2022/03/17 00:31:37;;;;;;;402.13;129.25;;;;;;;5.84;90.66;100386.25;341350;28;892;-70
2022/03/17 00:31:48;;;;;;;401.60;130.10;;;;;;;5.84;90.79;100381.06;340233;28;1769;-70
2022/03/17 00:31:58;;;;;;;404.47;132.30;;;;;;;5.86;90.06;100384.50;341205;28;801;-70
2022/03/17 00:32:09;;;;;;;405.98;132.55;;;;;;;5.87;90.48;100387.09;343694;28;851;-71
2022/03/17 00:32:20;;;;;;;404.03;132.40;;;;;;;5.88;90.54;100385.34;345309;28;1226;-70
2022/03/17 00:32:31;;;;;;;403.27;133.43;;;;;;;5.85;89.94;100388.84;344745;28;1443;-70
2022/03/17 00:32:41;;;;;;;401.63;130.73;;;;;;;5.84;90.38;100386.25;343731;28;1750;-70
2022/03/17 00:32:52;;;;;;;403.42;132.25;;;;;;;5.81;90.36;100381.94;342989;28;1216;-71
2022/03/17 00:33:02;;;;;;;404.50;131.07;;;;;;;5.83;90.46;100385.41;342556;28;1121;-70
2022/03/17 00:33:12;;;;;;;404.47;132.77;;;;;;;5.83;90.26;100392.31;341251;28;1452;-71
2022/03/17 00:33:23;;;;;;;405.42;132.85;;;;;;;5.85;90.49;100393.19;342372;28;1606;-71
2022/03/17 00:33:33;;;;;;;405.63;135.60;;;;;;;5.84;90.22;100383.66;342561;28;1357;-70
2022/03/17 00:33:44;;;;;;;405.27;134.97;;;;;;;5.84;89.92;100383.66;341032;28;1291;-70
2022/03/17 00:33:54;;;;;;;402.80;133.77;;;;;;;5.86;90.44;100387.09;341127;28;893;-70
2022/03/17 00:34:06;;;;;;;402.45;131.27;;;;;;;5.85;90.33;100385.38;338435;29;1225;-71
2022/03/17 00:34:16;;;;;;;404.52;131.88;;;;;;;5.85;90.04;100385.38;337303;29;1478;-70
2022/03/17 00:34:27;;;;;;;405.27;133.38;;;;;;;5.86;90.25;100381.91;341223;28;1394;-71
2022/03/17 00:35:35;;;;;;;403.00;134.30;;;;;;;5.88;90.11;100387.97;342630;28;1491;-70
2022/03/17 00:35:38;;;;;;;402.98;132.55;;;;;;;5.80;89.87;100382.81;337720;29;822;-71
2022/03/17 00:35:49;;;;;;;404.10;133.10;;;;;;;5.79;89.48;100382.84;340957;28;2151;-70
2022/03/17 00:35:59;;;;;;;403.23;132.60;;;;;;;5.74;89.56;100379.41;341368;28;944;-70
2022/03/17 00:36:10;;;;;;;397.88;130.30;;;;;;;5.74;89.58;100385.47;341164;28;892;-71
2022/03/17 00:36:20;;;;;;;398.10;130.27;;;;;;;5.76;89.60;100380.25;342660;28;982;-71
2022/03/17 00:36:34;;;;;;;399.45;132.35;;;;;;;5.76;89.78;100388.06;342329;28;881;-71
2022/03/17 00:36:46;;;;;;;401.25;134.23;;;;;;;5.78;89.60;100375.91;341104;28;929;-71
2022/03/17 00:36:57;;;;;;;400.38;133.48;;;;;;;5.81;89.62;100381.09;339701;29;885;-70
2022/03/17 00:37:08;;;;;;;398.34;130.90;;;;;;;5.83;89.68;100380.19;341088;28;1597;-70
2022/03/17 00:37:18;;;;;;;398.38;128.93;;;;;;;5.85;89.48;100380.19;341461;28;869;-70
2022/03/17 00:37:29;;;;;;;400.40;131.33;;;;;;;5.88;89.89;100380.16;342144;28;1829;-71
2022/03/17 00:37:39;;;;;;;404.08;132.10;;;;;;;5.88;89.58;100375.81;341578;28;1776;-71
2022/03/17 00:37:50;;;;;;;402.87;130.93;;;;;;;5.90;89.34;100376.72;341007;28;1543;-71
2022/03/17 00:38:05;;;;;;;399.60;127.13;;;;;;;5.90;89.33;100381.03;343777;28;1322;-71
2022/03/17 00:38:17;;;;;;;394.52;124.97;;;;;;;5.89;89.25;100385.38;341290;28;1625;-71
2022/03/17 00:38:27;;;;;;;396.05;129.50;;;;;;;5.91;89.19;100378.44;340921;28;1956;-71
2022/03/17 00:38:37;;;;;;;397.60;132.27;;;;;;;5.88;89.22;100382.75;339415;28;1176;-70
2022/03/17 00:38:48;;;;;;;398.00;132.45;;;;;;;5.85;88.96;100382.78;342844;28;912;-70
2022/03/17 00:38:58;;;;;;;399.13;130.27;;;;;;;5.85;89.20;100383.66;342521;28;948;-71
2022/03/17 00:39:09;;;;;;;398.17;131.65;;;;;;;5.76;88.96;100380.25;341135;28;1251;-71
2022/03/17 00:39:21;;;;;;;399.73;131.40;;;;;;;5.70;88.89;100378.59;342256;28;1315;-71
2022/03/17 00:39:31;;;;;;;398.38;128.73;;;;;;;5.66;88.84;100382.94;341183;28;897;-71
2022/03/17 00:39:42;;;;;;;400.92;130.23;;;;;;;5.67;89.29;100389.00;343626;28;1234;-70
2022/03/17 00:39:52;;;;;;;397.87;128.67;;;;;;;5.66;88.95;100385.53;343513;28;1201;-70
2022/03/17 00:40:03;;;;;;;398.48;129.98;;;;;;;5.67;89.35;100384.66;341751;28;1907;-70
2022/03/17 00:40:13;;;;;;;398.55;130.05;;;;;;;5.67;89.50;100384.66;339279;28;1192;-70
2022/03/17 00:40:24;;;;;;;399.88;131.30;;;;;;;5.70;89.29;100388.97;339488;28;933;-70
2022/03/17 00:40:35;;;;;;;401.33;130.17;;;;;;;5.71;89.05;100387.22;340981;28;932;-71
2022/03/17 00:40:46;;;;;;;400.52;129.07;;;;;;;5.74;89.50;100389.81;342499;28;949;-71
2022/03/17 00:40:56;;;;;;;396.63;126.17;;;;;;;5.73;89.13;100388.94;342447;28;1101;-71
2022/03/17 00:41:07;;;;;;;395.20;124.50;;;;;;;5.73;89.20;100380.28;339859;29;886;-71
2022/03/17 00:41:17;;;;;;;393.27;123.93;;;;;;;5.74;89.29;100382.88;342459;28;1402;-71
2022/03/17 00:41:27;;;;;;;396.00;126.25;;;;;;;5.74;89.16;100392.41;342406;28;1340;-71
2022/03/17 00:41:38;;;;;;;394.73;126.53;;;;;;;5.75;89.20;100391.53;342510;28;924;-71
2022/03/17 00:41:48;;;;;;;394.40;125.95;;;;;;;5.75;89.42;100384.59;339544;29;886;-71
2022/03/17 00:42:00;;;;;;;393.97;127.27;;;;;;;5.77;89.25;100387.19;342493;28;1377;-71
2022/03/17 00:42:10;;;;;;;396.33;129.90;;;;;;;5.78;89.44;100389.78;342485;28;965;-71
2022/03/17 00:42:21;;;;;;;397.00;130.00;;;;;;;5.80;89.45;100384.56;341895;28;1740;-71
2022/03/17 00:42:31;;;;;;;397.92;128.68;;;;;;;5.83;88.83;100389.72;339952;28;1694;-71
2022/03/17 00:42:41;;;;;;;397.47;126.93;;;;;;;5.83;89.20;100389.72;341064;28;1295;-71
2022/03/17 00:42:55;;;;;;;399.00;127.95;;;;;;;5.79;89.00;100382.84;342445;28;1179;-71
2022/03/17 00:43:06;;;;;;;400.52;130.93;;;;;;;5.76;88.77;100393.25;343892;28;1651;-71
2022/03/17 00:43:17;;;;;;;398.40;130.93;;;;;;;5.74;88.80;100385.47;341356;28;1256;-71
2022/03/17 00:43:27;;;;;;;396.23;129.48;;;;;;;5.74;89.13;100382.00;341866;28;1220;-72
2022/03/17 00:43:37;;;;;;;397.07;126.20;;;;;;;5.73;89.34;100388.94;344974;28;1247;-70
2022/03/17 00:43:48;;;;;;;399.42;126.90;;;;;;;5.69;88.92;100393.31;343858;28;977;-69
2022/03/17 00:43:58;;;;;;;399.97;129.03;;;;;;;5.63;89.09;100395.94;342266;28;2117;-70
2022/03/17 00:44:09;;;;;;;401.23;132.25;;;;;;;5.64;89.42;100387.28;341605;28;1668;-70
2022/03/17 00:44:19;;;;;;;399.27;132.33;;;;;;;5.64;89.76;100389.88;340464;28;1261;-70
2022/03/17 00:44:29;;;;;;;395.40;129.13;;;;;;;5.64;89.51;100384.69;339735;29;1236;-71
2022/03/17 00:44:40;;;;;;;394.67;127.67;;;;;;;5.65;89.60;100391.59;339762;29;892;-70
2022/03/17 00:44:50;;;;;;;395.98;127.60;;;;;;;5.64;89.15;100389.88;338741;29;882;-70
2022/03/17 00:45:01;;;;;;;396.60;129.70;;;;;;;5.65;88.83;100383.81;339751;29;812;-71
2022/03/17 00:45:12;;;;;;;393.73;128.03;;;;;;;5.63;88.54;100392.53;336704;29;1221;-71
2022/03/17 00:45:23;;;;;;;391.27;127.30;;;;;;;5.62;88.89;100386.47;338074;29;1358;-70
2022/03/17 00:45:34;;;;;;;391.25;126.30;;;;;;;5.62;89.06;100390.81;337558;29;1782;-70
2022/03/17 00:45:45;;;;;;;396.40;129.00;;;;;;;5.62;89.06;100390.81;341059;28;1447;-70
2022/03/17 00:45:55;;;;;;;395.77;124.15;;;;;;;5.60;89.23;100393.41;341006;28;1609;-70
2022/03/17 00:46:06;;;;;;;393.30;122.50;;;;;;;5.54;89.14;100383.06;342271;28;1172;-70
2022/03/17 00:46:16;;;;;;;392.70;123.03;;;;;;;5.55;89.13;100384.78;341251;28;1060;-70
2022/03/17 00:46:27;;;;;;;396.63;127.78;;;;;;;5.57;89.21;100387.38;345179;28;903;-70
2022/03/17 00:46:37;;;;;;;397.83;129.40;;;;;;;5.59;89.38;100390.81;343357;28;1479;-70
2022/03/17 00:46:47;;;;;;;396.85;126.07;;;;;;;5.61;89.62;100389.94;339684;29;1292;-70
2022/03/17 00:46:58;;;;;;;394.97;124.40;;;;;;;5.62;89.41;100389.06;339663;29;948;-70
2022/03/17 00:47:08;;;;;;;396.88;122.43;;;;;;;5.59;89.44;100389.09;340292;28;1937;-70
2022/03/17 00:47:19;;;;;;;398.43;124.50;;;;;;;5.56;89.47;100383.91;341574;28;1074;-70
2022/03/17 00:47:29;;;;;;;397.65;125.05;;;;;;;5.56;89.67;100386.50;339916;28;1505;-71
2022/03/17 00:47:39;;;;;;;396.77;126.77;;;;;;;5.58;89.52;100384.78;338659;28;1964;-71
2022/03/17 00:47:50;;;;;;;399.13;126.72;;;;;;;5.60;89.70;100383.03;340336;28;1110;-70
2022/03/17 00:48:00;;;;;;;400.40;124.63;;;;;;;5.60;89.24;100388.22;343589;28;1186;-70
2022/03/17 00:48:11;;;;;;;399.95;123.85;;;;;;;5.61;89.77;100392.53;343254;28;2199;-70
2022/03/17 00:48:21;;;;;;;395.97;123.47;;;;;;;5.60;89.11;100382.16;339950;28;1307;-70
2022/03/17 00:48:32;;;;;;;397.00;125.10;;;;;;;5.61;89.21;100382.16;340127;29;1113;-70
2022/03/17 00:48:42;;;;;;;397.30;124.53;;;;;;;5.62;89.25;100383.88;338719;29;1269;-70
2022/03/17 00:48:52;;;;;;;398.45;124.95;;;;;;;5.63;89.16;100388.16;339611;28;1601;-70
2022/03/17 00:49:03;;;;;;;395.77;124.50;;;;;;;5.63;89.37;100382.97;342389;28;1333;-70
2022/03/17 00:49:14;;;;;;;393.00;123.53;;;;;;;5.63;89.56;100377.78;338232;29;1796;-70
2022/03/17 00:49:24;;;;;;;390.38;121.18;;;;;;;5.63;89.29;100382.97;337257;29;898;-71
2022/03/17 00:49:34;;;;;;;390.93;120.23;;;;;;;5.63;89.18;100382.13;339811;29;935;-71
2022/03/17 00:49:45;;;;;;;392.93;120.37;;;;;;;5.65;89.36;100386.41;341245;28;889;-71
2022/03/17 00:49:55;;;;;;;395.80;123.13;;;;;;;5.65;89.18;100385.53;342148;28;1328;-70
2022/03/17 00:50:06;;;;;;;396.67;122.70;;;;;;;5.61;89.18;100384.75;338833;28;1173;-70
2022/03/17 00:50:17;;;;;;;395.00;122.25;;;;;;;5.62;89.20;100385.59;339544;28;1276;-70
2022/03/17 00:50:27;;;;;;;394.13;120.38;;;;;;;5.64;89.19;100389.88;341452;28;1717;-70
2022/03/17 00:50:37;;;;;;;395.53;123.77;;;;;;;5.65;89.16;100381.22;340159;28;1363;-70